sensor_id;sensor_type;location;lat;lon;timestamp;P1;durP1;ratioP1;P2;durP2;ratioP2
20758;SDS011;10539;53.686;9.158;2023-06-22T00:00:56;13.63;;;11.57;;
20758;SDS011;10539;53.686;9.158;2023-06-22T00:03:23;15.52;;;11.18;;
20758;SDS011;10539;53.686;9.158;2023-06-22T00:05:50;17.80;;;12.30;;
20758;SDS011;10539;53.686;9.158;2023-06-22T00:08:16;13.90;;;11.63;;
20758;SDS011;10539;53.686;9.158;2023-06-22T00:10:43;13.55;;;11.48;;
20758;SDS011;10539;53.686;9.158;2023-06-22T00:13:10;16.92;;;11.02;;
20758;SDS011;10539;53.686;9.158;2023-06-22T00:15:37;14.15;;;11.25;;
20758;SDS011;10539;53.686;9.158;2023-06-22T00:18:04;15.55;;;11.75;;
20758;SDS011;10539;53.686;9.158;2023-06-22T00:20:31;14.80;;;10.50;;
20758;SDS011;10539;53.686;9.158;2023-06-22T00:22:58;15.05;;;10.50;;
20758;SDS011;10539;53.686;9.158;2023-06-22T00:25:25;15.80;;;11.45;;
20758;SDS011;10539;53.686;9.158;2023-06-22T00:27:51;14.60;;;10.50;;
20758;SDS011;10539;53.686;9.158;2023-06-22T00:30:17;16.88;;;11.10;;
20758;SDS011;10539;53.686;9.158;2023-06-22T00:32:44;15.23;;;10.60;;
20758;SDS011;10539;53.686;9.158;2023-06-22T00:35:13;13.70;;;10.57;;
20758;SDS011;10539;53.686;9.158;2023-06-22T00:37:39;17.83;;;11.93;;
20758;SDS011;10539;53.686;9.158;2023-06-22T00:40:08;18.37;;;12.67;;
20758;SDS011;10539;53.686;9.158;2023-06-22T00:42:37;20.83;;;12.93;;
20758;SDS011;10539;53.686;9.158;2023-06-22T00:45:04;20.90;;;13.13;;
20758;SDS011;10539;53.686;9.158;2023-06-22T00:47:31;15.80;;;11.77;;
20758;SDS011;10539;53.686;9.158;2023-06-22T00:49:58;17.60;;;12.80;;
20758;SDS011;10539;53.686;9.158;2023-06-22T00:52:24;15.63;;;11.87;;
20758;SDS011;10539;53.686;9.158;2023-06-22T00:54:56;17.33;;;11.93;;
20758;SDS011;10539;53.686;9.158;2023-06-22T00:57:23;15.00;;;12.30;;
20758;SDS011;10539;53.686;9.158;2023-06-22T00:59:53;18.67;;;12.77;;
20758;SDS011;10539;53.686;9.158;2023-06-22T01:02:19;19.73;;;13.35;;
20758;SDS011;10539;53.686;9.158;2023-06-22T01:04:45;19.60;;;13.23;;
20758;SDS011;10539;53.686;9.158;2023-06-22T01:13:00;28.63;;;19.77;;
20758;SDS011;10539;53.686;9.158;2023-06-22T01:18:22;26.50;;;19.03;;
20758;SDS011;10539;53.686;9.158;2023-06-22T01:20:52;30.50;;;18.47;;
20758;SDS011;10539;53.686;9.158;2023-06-22T01:23:26;26.07;;;18.83;;
20758;SDS011;10539;53.686;9.158;2023-06-22T01:28:53;24.30;;;15.23;;
20758;SDS011;10539;53.686;9.158;2023-06-22T01:31:22;27.48;;;16.00;;
20758;SDS011;10539;53.686;9.158;2023-06-22T01:33:53;26.00;;;17.20;;
20758;SDS011;10539;53.686;9.158;2023-06-22T01:36:22;27.77;;;18.57;;
20758;SDS011;10539;53.686;9.158;2023-06-22T01:38:49;25.57;;;17.17;;
20758;SDS011;10539;53.686;9.158;2023-06-22T01:41:17;25.23;;;18.10;;
20758;SDS011;10539;53.686;9.158;2023-06-22T01:43:44;25.77;;;17.10;;
20758;SDS011;10539;53.686;9.158;2023-06-22T01:46:11;25.63;;;17.63;;
20758;SDS011;10539;53.686;9.158;2023-06-22T01:48:37;27.73;;;18.07;;
20758;SDS011;10539;53.686;9.158;2023-06-22T01:51:04;26.33;;;18.03;;
20758;SDS011;10539;53.686;9.158;2023-06-22T01:53:31;29.23;;;19.27;;
20758;SDS011;10539;53.686;9.158;2023-06-22T01:55:57;30.57;;;20.33;;
20758;SDS011;10539;53.686;9.158;2023-06-22T01:58:25;34.00;;;20.17;;
20758;SDS011;10539;53.686;9.158;2023-06-22T02:00:53;25.40;;;18.42;;
20758;SDS011;10539;53.686;9.158;2023-06-22T02:03:23;32.37;;;20.73;;
20758;SDS011;10539;53.686;9.158;2023-06-22T02:05:56;25.43;;;17.30;;
20758;SDS011;10539;53.686;9.158;2023-06-22T02:08:32;29.47;;;17.90;;
20758;SDS011;10539;53.686;9.158;2023-06-22T02:11:20;27.60;;;16.93;;
20758;SDS011;10539;53.686;9.158;2023-06-22T02:13:46;21.47;;;14.17;;
20758;SDS011;10539;53.686;9.158;2023-06-22T02:16:13;22.77;;;15.27;;
20758;SDS011;10539;53.686;9.158;2023-06-22T02:18:47;27.00;;;17.30;;
20758;SDS011;10539;53.686;9.158;2023-06-22T02:21:17;26.53;;;18.10;;
20758;SDS011;10539;53.686;9.158;2023-06-22T02:23:43;30.50;;;19.63;;
20758;SDS011;10539;53.686;9.158;2023-06-22T02:26:09;29.73;;;19.77;;
20758;SDS011;10539;53.686;9.158;2023-06-22T02:28:35;25.63;;;18.20;;
20758;SDS011;10539;53.686;9.158;2023-06-22T02:31:01;32.77;;;17.77;;
20758;SDS011;10539;53.686;9.158;2023-06-22T02:33:27;30.73;;;19.77;;
20758;SDS011;10539;53.686;9.158;2023-06-22T02:35:53;28.43;;;19.07;;
20758;SDS011;10539;53.686;9.158;2023-06-22T02:38:19;28.83;;;19.47;;
20758;SDS011;10539;53.686;9.158;2023-06-22T02:40:45;28.90;;;18.87;;
20758;SDS011;10539;53.686;9.158;2023-06-22T02:43:11;26.93;;;18.03;;
20758;SDS011;10539;53.686;9.158;2023-06-22T02:45:37;27.93;;;18.23;;
20758;SDS011;10539;53.686;9.158;2023-06-22T02:48:03;36.77;;;20.10;;
20758;SDS011;10539;53.686;9.158;2023-06-22T02:50:29;39.70;;;26.07;;
20758;SDS011;10539;53.686;9.158;2023-06-22T02:52:55;40.43;;;26.57;;
20758;SDS011;10539;53.686;9.158;2023-06-22T02:55:21;35.37;;;24.87;;
20758;SDS011;10539;53.686;9.158;2023-06-22T02:57:47;39.73;;;24.67;;
20758;SDS011;10539;53.686;9.158;2023-06-22T03:00:13;35.10;;;23.77;;
20758;SDS011;10539;53.686;9.158;2023-06-22T03:02:46;38.27;;;25.07;;
20758;SDS011;10539;53.686;9.158;2023-06-22T03:05:15;39.63;;;24.20;;
20758;SDS011;10539;53.686;9.158;2023-06-22T03:07:43;40.80;;;24.90;;
20758;SDS011;10539;53.686;9.158;2023-06-22T03:10:10;35.83;;;24.53;;
20758;SDS011;10539;53.686;9.158;2023-06-22T03:12:37;36.03;;;23.57;;
20758;SDS011;10539;53.686;9.158;2023-06-22T03:15:05;36.53;;;23.70;;
20758;SDS011;10539;53.686;9.158;2023-06-22T03:17:34;37.60;;;23.83;;
20758;SDS011;10539;53.686;9.158;2023-06-22T03:20:00;36.33;;;22.63;;
20758;SDS011;10539;53.686;9.158;2023-06-22T03:22:33;41.30;;;23.57;;
20758;SDS011;10539;53.686;9.158;2023-06-22T03:25:07;30.80;;;20.27;;
20758;SDS011;10539;53.686;9.158;2023-06-22T03:27:38;32.23;;;20.20;;
20758;SDS011;10539;53.686;9.158;2023-06-22T03:30:05;29.47;;;19.60;;
20758;SDS011;10539;53.686;9.158;2023-06-22T03:32:32;31.60;;;21.37;;
20758;SDS011;10539;53.686;9.158;2023-06-22T03:34:57;35.87;;;20.97;;
20758;SDS011;10539;53.686;9.158;2023-06-22T03:37:27;36.30;;;22.23;;
20758;SDS011;10539;53.686;9.158;2023-06-22T03:39:53;36.40;;;23.87;;
20758;SDS011;10539;53.686;9.158;2023-06-22T03:42:19;35.03;;;22.17;;
20758;SDS011;10539;53.686;9.158;2023-06-22T03:44:45;37.63;;;23.07;;
20758;SDS011;10539;53.686;9.158;2023-06-22T03:47:11;38.80;;;24.23;;
20758;SDS011;10539;53.686;9.158;2023-06-22T03:49:37;38.97;;;25.27;;
20758;SDS011;10539;53.686;9.158;2023-06-22T03:52:03;43.77;;;26.20;;
20758;SDS011;10539;53.686;9.158;2023-06-22T03:54:29;40.70;;;25.53;;
20758;SDS011;10539;53.686;9.158;2023-06-22T03:56:56;47.10;;;27.87;;
20758;SDS011;10539;53.686;9.158;2023-06-22T03:59:22;42.17;;;27.23;;
20758;SDS011;10539;53.686;9.158;2023-06-22T04:01:48;37.57;;;24.67;;
20758;SDS011;10539;53.686;9.158;2023-06-22T04:04:15;37.87;;;24.90;;
20758;SDS011;10539;53.686;9.158;2023-06-22T04:06:42;39.43;;;25.00;;
20758;SDS011;10539;53.686;9.158;2023-06-22T04:09:08;41.83;;;24.80;;
20758;SDS011;10539;53.686;9.158;2023-06-22T04:11:34;33.73;;;23.33;;
20758;SDS011;10539;53.686;9.158;2023-06-22T04:13:59;42.93;;;25.27;;
20758;SDS011;10539;53.686;9.158;2023-06-22T04:16:25;45.73;;;26.70;;
20758;SDS011;10539;53.686;9.158;2023-06-22T04:18:51;46.63;;;28.97;;
20758;SDS011;10539;53.686;9.158;2023-06-22T04:21:17;51.80;;;30.83;;
20758;SDS011;10539;53.686;9.158;2023-06-22T04:23:44;47.93;;;29.73;;
20758;SDS011;10539;53.686;9.158;2023-06-22T04:26:11;57.87;;;32.93;;
20758;SDS011;10539;53.686;9.158;2023-06-22T04:28:37;54.17;;;32.37;;
20758;SDS011;10539;53.686;9.158;2023-06-22T04:31:03;51.47;;;32.20;;
20758;SDS011;10539;53.686;9.158;2023-06-22T04:33:30;48.67;;;30.53;;
20758;SDS011;10539;53.686;9.158;2023-06-22T04:35:56;48.90;;;29.87;;
20758;SDS011;10539;53.686;9.158;2023-06-22T04:38:23;57.10;;;32.93;;
20758;SDS011;10539;53.686;9.158;2023-06-22T04:40:50;55.00;;;33.33;;
20758;SDS011;10539;53.686;9.158;2023-06-22T04:43:16;57.20;;;34.80;;
20758;SDS011;10539;53.686;9.158;2023-06-22T04:45:42;49.93;;;32.37;;
20758;SDS011;10539;53.686;9.158;2023-06-22T04:48:08;49.40;;;31.33;;
20758;SDS011;10539;53.686;9.158;2023-06-22T04:50:35;49.97;;;29.90;;
20758;SDS011;10539;53.686;9.158;2023-06-22T04:53:04;49.40;;;30.70;;
20758;SDS011;10539;53.686;9.158;2023-06-22T04:55:31;48.97;;;29.30;;
20758;SDS011;10539;53.686;9.158;2023-06-22T04:57:57;47.20;;;29.50;;
20758;SDS011;10539;53.686;9.158;2023-06-22T05:00:29;45.27;;;29.20;;
20758;SDS011;10539;53.686;9.158;2023-06-22T05:02:56;36.93;;;25.63;;
20758;SDS011;10539;53.686;9.158;2023-06-22T05:05:25;36.47;;;23.43;;
20758;SDS011;10539;53.686;9.158;2023-06-22T05:07:51;37.03;;;23.63;;
20758;SDS011;10539;53.686;9.158;2023-06-22T05:10:24;32.10;;;21.03;;
20758;SDS011;10539;53.686;9.158;2023-06-22T05:12:51;28.40;;;20.60;;
20758;SDS011;10539;53.686;9.158;2023-06-22T05:15:16;28.37;;;19.57;;
20758;SDS011;10539;53.686;9.158;2023-06-22T05:17:44;34.80;;;20.60;;
20758;SDS011;10539;53.686;9.158;2023-06-22T05:20:11;31.83;;;19.73;;
20758;SDS011;10539;53.686;9.158;2023-06-22T05:22:41;32.73;;;21.67;;
20758;SDS011;10539;53.686;9.158;2023-06-22T05:25:08;38.83;;;23.90;;
20758;SDS011;10539;53.686;9.158;2023-06-22T05:27:35;37.07;;;23.40;;
20758;SDS011;10539;53.686;9.158;2023-06-22T05:30:08;35.37;;;23.13;;
20758;SDS011;10539;53.686;9.158;2023-06-22T05:32:35;34.83;;;22.50;;
20758;SDS011;10539;53.686;9.158;2023-06-22T05:35:01;35.40;;;22.10;;
20758;SDS011;10539;53.686;9.158;2023-06-22T05:37:28;35.53;;;22.93;;
20758;SDS011;10539;53.686;9.158;2023-06-22T05:39:54;31.93;;;20.73;;
20758;SDS011;10539;53.686;9.158;2023-06-22T05:42:21;27.83;;;19.17;;
20758;SDS011;10539;53.686;9.158;2023-06-22T05:44:47;30.90;;;19.93;;
20758;SDS011;10539;53.686;9.158;2023-06-22T05:47:13;25.37;;;16.33;;
20758;SDS011;10539;53.686;9.158;2023-06-22T05:49:38;25.53;;;17.20;;
20758;SDS011;10539;53.686;9.158;2023-06-22T05:52:04;21.73;;;14.93;;
20758;SDS011;10539;53.686;9.158;2023-06-22T05:54:30;18.00;;;12.13;;
20758;SDS011;10539;53.686;9.158;2023-06-22T05:56:56;24.50;;;16.37;;
20758;SDS011;10539;53.686;9.158;2023-06-22T05:59:22;22.50;;;15.17;;
20758;SDS011;10539;53.686;9.158;2023-06-22T06:01:48;24.77;;;17.30;;
20758;SDS011;10539;53.686;9.158;2023-06-22T06:04:17;25.07;;;16.23;;
20758;SDS011;10539;53.686;9.158;2023-06-22T06:06:43;23.47;;;15.80;;
20758;SDS011;10539;53.686;9.158;2023-06-22T06:09:09;24.47;;;14.77;;
20758;SDS011;10539;53.686;9.158;2023-06-22T06:11:36;18.93;;;13.63;;
20758;SDS011;10539;53.686;9.158;2023-06-22T06:14:03;17.87;;;11.37;;
20758;SDS011;10539;53.686;9.158;2023-06-22T06:16:29;21.70;;;13.23;;
20758;SDS011;10539;53.686;9.158;2023-06-22T06:18:54;22.93;;;12.80;;
20758;SDS011;10539;53.686;9.158;2023-06-22T06:21:21;18.47;;;11.07;;
20758;SDS011;10539;53.686;9.158;2023-06-22T06:23:47;16.53;;;11.43;;
20758;SDS011;10539;53.686;9.158;2023-06-22T06:26:13;17.27;;;11.70;;
20758;SDS011;10539;53.686;9.158;2023-06-22T06:28:41;18.48;;;10.73;;
20758;SDS011;10539;53.686;9.158;2023-06-22T06:31:07;19.08;;;12.30;;
20758;SDS011;10539;53.686;9.158;2023-06-22T06:33:34;17.08;;;12.38;;
20758;SDS011;10539;53.686;9.158;2023-06-22T06:36:00;23.48;;;12.68;;
20758;SDS011;10539;53.686;9.158;2023-06-22T06:38:29;16.90;;;9.82;;
20758;SDS011;10539;53.686;9.158;2023-06-22T06:40:58;11.80;;;8.77;;
20758;SDS011;10539;53.686;9.158;2023-06-22T06:43:24;15.38;;;10.20;;
20758;SDS011;10539;53.686;9.158;2023-06-22T06:45:50;11.48;;;7.35;;
20758;SDS011;10539;53.686;9.158;2023-06-22T06:48:16;9.75;;;7.00;;
20758;SDS011;10539;53.686;9.158;2023-06-22T06:50:42;10.85;;;7.65;;
20758;SDS011;10539;53.686;9.158;2023-06-22T06:53:09;12.13;;;6.53;;
20758;SDS011;10539;53.686;9.158;2023-06-22T06:55:35;8.30;;;6.45;;
20758;SDS011;10539;53.686;9.158;2023-06-22T06:58:01;11.65;;;6.53;;
20758;SDS011;10539;53.686;9.158;2023-06-22T07:00:29;9.32;;;6.47;;
20758;SDS011;10539;53.686;9.158;2023-06-22T07:02:55;8.68;;;5.95;;
20758;SDS011;10539;53.686;9.158;2023-06-22T07:05:20;7.70;;;5.43;;
20758;SDS011;10539;53.686;9.158;2023-06-22T07:07:46;10.90;;;5.20;;
20758;SDS011;10539;53.686;9.158;2023-06-22T07:10:12;7.03;;;5.13;;
20758;SDS011;10539;53.686;9.158;2023-06-22T07:12:37;7.47;;;4.70;;
20758;SDS011;10539;53.686;9.158;2023-06-22T07:15:04;8.35;;;5.22;;
20758;SDS011;10539;53.686;9.158;2023-06-22T07:17:33;6.30;;;5.47;;
20758;SDS011;10539;53.686;9.158;2023-06-22T07:19:59;8.40;;;5.88;;
20758;SDS011;10539;53.686;9.158;2023-06-22T07:22:25;8.40;;;5.55;;
20758;SDS011;10539;53.686;9.158;2023-06-22T07:24:51;6.60;;;4.82;;
20758;SDS011;10539;53.686;9.158;2023-06-22T07:27:17;7.78;;;4.43;;
20758;SDS011;10539;53.686;9.158;2023-06-22T07:29:46;8.05;;;5.57;;
20758;SDS011;10539;53.686;9.158;2023-06-22T07:32:12;6.60;;;5.00;;
20758;SDS011;10539;53.686;9.158;2023-06-22T07:34:37;6.55;;;4.90;;
20758;SDS011;10539;53.686;9.158;2023-06-22T07:37:03;6.43;;;4.28;;
20758;SDS011;10539;53.686;9.158;2023-06-22T07:39:30;8.98;;;4.97;;
20758;SDS011;10539;53.686;9.158;2023-06-22T07:41:55;7.10;;;4.32;;
20758;SDS011;10539;53.686;9.158;2023-06-22T07:44:21;5.22;;;3.58;;
20758;SDS011;10539;53.686;9.158;2023-06-22T07:46:47;6.00;;;4.15;;
20758;SDS011;10539;53.686;9.158;2023-06-22T07:49:13;4.45;;;2.90;;
20758;SDS011;10539;53.686;9.158;2023-06-22T07:51:38;6.05;;;2.50;;
20758;SDS011;10539;53.686;9.158;2023-06-22T07:54:04;5.18;;;3.85;;
20758;SDS011;10539;53.686;9.158;2023-06-22T07:56:30;6.75;;;3.50;;
20758;SDS011;10539;53.686;9.158;2023-06-22T07:58:55;6.10;;;3.60;;
20758;SDS011;10539;53.686;9.158;2023-06-22T08:01:23;4.32;;;3.53;;
20758;SDS011;10539;53.686;9.158;2023-06-22T08:03:49;7.95;;;3.58;;
20758;SDS011;10539;53.686;9.158;2023-06-22T08:06:15;5.65;;;3.10;;
20758;SDS011;10539;53.686;9.158;2023-06-22T08:08:41;4.28;;;3.10;;
20758;SDS011;10539;53.686;9.158;2023-06-22T08:11:08;4.55;;;2.90;;
20758;SDS011;10539;53.686;9.158;2023-06-22T08:13:34;4.68;;;3.00;;
20758;SDS011;10539;53.686;9.158;2023-06-22T08:16:00;4.47;;;3.38;;
20758;SDS011;10539;53.686;9.158;2023-06-22T08:18:26;6.38;;;3.00;;
20758;SDS011;10539;53.686;9.158;2023-06-22T08:20:52;5.40;;;3.53;;
20758;SDS011;10539;53.686;9.158;2023-06-22T08:23:17;4.10;;;2.70;;
20758;SDS011;10539;53.686;9.158;2023-06-22T08:25:43;4.30;;;2.65;;
20758;SDS011;10539;53.686;9.158;2023-06-22T08:28:09;5.82;;;2.83;;
20758;SDS011;10539;53.686;9.158;2023-06-22T08:30:35;5.00;;;2.80;;
20758;SDS011;10539;53.686;9.158;2023-06-22T08:33:01;3.58;;;2.67;;
20758;SDS011;10539;53.686;9.158;2023-06-22T08:35:26;3.65;;;2.72;;
20758;SDS011;10539;53.686;9.158;2023-06-22T08:37:52;3.85;;;2.30;;
20758;SDS011;10539;53.686;9.158;2023-06-22T08:40:20;3.22;;;2.40;;
20758;SDS011;10539;53.686;9.158;2023-06-22T08:42:47;3.78;;;2.60;;
20758;SDS011;10539;53.686;9.158;2023-06-22T08:45:13;4.28;;;2.00;;
20758;SDS011;10539;53.686;9.158;2023-06-22T08:47:40;5.75;;;2.30;;
20758;SDS011;10539;53.686;9.158;2023-06-22T08:50:06;2.75;;;2.05;;
20758;SDS011;10539;53.686;9.158;2023-06-22T08:52:34;3.33;;;2.00;;
20758;SDS011;10539;53.686;9.158;2023-06-22T08:55:00;4.93;;;2.78;;
20758;SDS011;10539;53.686;9.158;2023-06-22T08:57:26;3.00;;;1.77;;
20758;SDS011;10539;53.686;9.158;2023-06-22T08:59:52;2.90;;;1.80;;
20758;SDS011;10539;53.686;9.158;2023-06-22T09:02:19;2.33;;;1.85;;
20758;SDS011;10539;53.686;9.158;2023-06-22T09:04:48;3.28;;;2.35;;
20758;SDS011;10539;53.686;9.158;2023-06-22T09:07:20;4.47;;;2.53;;
20758;SDS011;10539;53.686;9.158;2023-06-22T09:09:50;4.22;;;2.50;;
20758;SDS011;10539;53.686;9.158;2023-06-22T09:12:16;3.58;;;2.40;;
20758;SDS011;10539;53.686;9.158;2023-06-22T09:14:45;5.68;;;2.65;;
20758;SDS011;10539;53.686;9.158;2023-06-22T09:17:12;4.90;;;2.40;;
20758;SDS011;10539;53.686;9.158;2023-06-22T09:19:38;3.80;;;2.40;;
20758;SDS011;10539;53.686;9.158;2023-06-22T09:22:04;3.85;;;2.10;;
20758;SDS011;10539;53.686;9.158;2023-06-22T09:24:31;5.70;;;2.70;;
20758;SDS011;10539;53.686;9.158;2023-06-22T09:26:58;3.63;;;2.40;;
20758;SDS011;10539;53.686;9.158;2023-06-22T09:29:24;2.80;;;2.10;;
20758;SDS011;10539;53.686;9.158;2023-06-22T09:31:50;3.30;;;1.92;;
20758;SDS011;10539;53.686;9.158;2023-06-22T09:34:16;5.82;;;2.08;;
20758;SDS011;10539;53.686;9.158;2023-06-22T09:36:45;2.53;;;2.00;;
20758;SDS011;10539;53.686;9.158;2023-06-22T09:39:13;3.60;;;2.20;;
20758;SDS011;10539;53.686;9.158;2023-06-22T09:41:40;6.35;;;2.05;;
20758;SDS011;10539;53.686;9.158;2023-06-22T09:44:05;3.60;;;2.15;;
20758;SDS011;10539;53.686;9.158;2023-06-22T09:46:31;2.95;;;1.95;;
20758;SDS011;10539;53.686;9.158;2023-06-22T09:48:57;13.27;;;2.80;;
20758;SDS011;10539;53.686;9.158;2023-06-22T09:51:23;6.10;;;2.03;;
20758;SDS011;10539;53.686;9.158;2023-06-22T09:53:49;4.32;;;2.20;;
20758;SDS011;10539;53.686;9.158;2023-06-22T09:56:15;7.28;;;2.50;;
20758;SDS011;10539;53.686;9.158;2023-06-22T09:58:42;6.28;;;2.80;;
20758;SDS011;10539;53.686;9.158;2023-06-22T10:01:08;5.22;;;2.70;;
20758;SDS011;10539;53.686;9.158;2023-06-22T10:03:35;5.18;;;2.63;;
20758;SDS011;10539;53.686;9.158;2023-06-22T10:06:01;5.32;;;2.85;;
20758;SDS011;10539;53.686;9.158;2023-06-22T10:08:27;4.00;;;2.58;;
20758;SDS011;10539;53.686;9.158;2023-06-22T10:10:53;5.07;;;2.80;;
20758;SDS011;10539;53.686;9.158;2023-06-22T10:13:19;5.10;;;2.97;;
20758;SDS011;10539;53.686;9.158;2023-06-22T10:15:45;6.72;;;2.90;;
20758;SDS011;10539;53.686;9.158;2023-06-22T10:18:15;5.43;;;3.00;;
20758;SDS011;10539;53.686;9.158;2023-06-22T10:20:41;6.38;;;3.85;;
20758;SDS011;10539;53.686;9.158;2023-06-22T10:23:07;4.60;;;3.35;;
20758;SDS011;10539;53.686;9.158;2023-06-22T10:25:33;5.78;;;3.35;;
20758;SDS011;10539;53.686;9.158;2023-06-22T10:27:58;5.03;;;3.00;;
20758;SDS011;10539;53.686;9.158;2023-06-22T10:30:24;6.07;;;3.50;;
20758;SDS011;10539;53.686;9.158;2023-06-22T10:32:50;6.20;;;3.70;;
20758;SDS011;10539;53.686;9.158;2023-06-22T10:35:16;5.90;;;3.40;;
20758;SDS011;10539;53.686;9.158;2023-06-22T10:37:45;5.13;;;3.35;;
20758;SDS011;10539;53.686;9.158;2023-06-22T10:40:15;5.15;;;3.13;;
20758;SDS011;10539;53.686;9.158;2023-06-22T10:42:41;6.25;;;3.40;;
20758;SDS011;10539;53.686;9.158;2023-06-22T10:45:07;6.82;;;3.80;;
20758;SDS011;10539;53.686;9.158;2023-06-22T10:47:34;7.07;;;3.97;;
20758;SDS011;10539;53.686;9.158;2023-06-22T10:50:00;5.25;;;3.40;;
20758;SDS011;10539;53.686;9.158;2023-06-22T10:52:26;7.75;;;3.50;;
20758;SDS011;10539;53.686;9.158;2023-06-22T10:54:52;6.57;;;3.67;;
20758;SDS011;10539;53.686;9.158;2023-06-22T10:57:18;4.28;;;3.45;;
20758;SDS011;10539;53.686;9.158;2023-06-22T10:59:44;3.83;;;2.92;;
20758;SDS011;10539;53.686;9.158;2023-06-22T11:02:10;5.03;;;3.08;;
20758;SDS011;10539;53.686;9.158;2023-06-22T11:04:36;6.68;;;3.58;;
20758;SDS011;10539;53.686;9.158;2023-06-22T11:07:02;6.60;;;3.67;;
20758;SDS011;10539;53.686;9.158;2023-06-22T11:09:27;4.65;;;3.40;;
20758;SDS011;10539;53.686;9.158;2023-06-22T11:11:55;7.50;;;4.03;;
20758;SDS011;10539;53.686;9.158;2023-06-22T11:14:21;7.03;;;3.90;;
20758;SDS011;10539;53.686;9.158;2023-06-22T11:16:47;4.40;;;3.50;;
20758;SDS011;10539;53.686;9.158;2023-06-22T11:19:13;5.47;;;3.97;;
20758;SDS011;10539;53.686;9.158;2023-06-22T11:21:39;6.70;;;4.05;;
20758;SDS011;10539;53.686;9.158;2023-06-22T11:24:05;5.50;;;3.58;;
20758;SDS011;10539;53.686;9.158;2023-06-22T11:26:31;8.05;;;4.43;;
20758;SDS011;10539;53.686;9.158;2023-06-22T11:28:58;4.75;;;3.88;;
20758;SDS011;10539;53.686;9.158;2023-06-22T11:31:23;5.13;;;3.05;;
20758;SDS011;10539;53.686;9.158;2023-06-22T11:33:49;6.00;;;3.63;;
20758;SDS011;10539;53.686;9.158;2023-06-22T11:36:15;5.55;;;3.58;;
20758;SDS011;10539;53.686;9.158;2023-06-22T11:38:42;10.52;;;3.92;;
20758;SDS011;10539;53.686;9.158;2023-06-22T11:41:08;9.65;;;3.42;;
20758;SDS011;10539;53.686;9.158;2023-06-22T11:43:34;7.28;;;3.17;;
20758;SDS011;10539;53.686;9.158;2023-06-22T11:46:01;11.30;;;3.80;;
20758;SDS011;10539;53.686;9.158;2023-06-22T11:48:28;6.22;;;3.67;;
20758;SDS011;10539;53.686;9.158;2023-06-22T11:50:54;8.23;;;4.30;;
20758;SDS011;10539;53.686;9.158;2023-06-22T11:53:20;7.22;;;4.13;;
20758;SDS011;10539;53.686;9.158;2023-06-22T11:55:47;5.75;;;3.83;;
20758;SDS011;10539;53.686;9.158;2023-06-22T11:58:14;5.82;;;3.50;;
20758;SDS011;10539;53.686;9.158;2023-06-22T12:00:40;4.88;;;3.47;;
20758;SDS011;10539;53.686;9.158;2023-06-22T12:03:07;6.78;;;3.97;;
20758;SDS011;10539;53.686;9.158;2023-06-22T12:05:33;6.95;;;4.35;;
20758;SDS011;10539;53.686;9.158;2023-06-22T12:07:58;7.93;;;4.97;;
20758;SDS011;10539;53.686;9.158;2023-06-22T12:10:27;8.90;;;4.22;;
20758;SDS011;10539;53.686;9.158;2023-06-22T12:12:56;6.07;;;4.53;;
20758;SDS011;10539;53.686;9.158;2023-06-22T12:15:25;6.03;;;3.80;;
20758;SDS011;10539;53.686;9.158;2023-06-22T12:17:51;6.00;;;4.07;;
20758;SDS011;10539;53.686;9.158;2023-06-22T12:20:18;5.82;;;4.30;;
20758;SDS011;10539;53.686;9.158;2023-06-22T12:22:44;6.03;;;3.95;;
20758;SDS011;10539;53.686;9.158;2023-06-22T12:25:10;6.38;;;3.72;;
20758;SDS011;10539;53.686;9.158;2023-06-22T12:27:36;6.70;;;4.25;;
20758;SDS011;10539;53.686;9.158;2023-06-22T12:30:02;5.72;;;3.97;;
20758;SDS011;10539;53.686;9.158;2023-06-22T12:32:28;5.60;;;4.40;;
20758;SDS011;10539;53.686;9.158;2023-06-22T12:34:54;5.38;;;4.15;;
20758;SDS011;10539;53.686;9.158;2023-06-22T12:37:20;5.95;;;3.60;;
20758;SDS011;10539;53.686;9.158;2023-06-22T12:39:46;5.45;;;4.10;;
20758;SDS011;10539;53.686;9.158;2023-06-22T12:42:12;6.93;;;4.00;;
20758;SDS011;10539;53.686;9.158;2023-06-22T12:44:38;4.90;;;3.45;;
20758;SDS011;10539;53.686;9.158;2023-06-22T12:47:05;5.18;;;3.88;;
20758;SDS011;10539;53.686;9.158;2023-06-22T12:49:31;5.18;;;3.80;;
20758;SDS011;10539;53.686;9.158;2023-06-22T12:51:57;6.82;;;4.40;;
20758;SDS011;10539;53.686;9.158;2023-06-22T12:54:23;6.13;;;3.85;;
20758;SDS011;10539;53.686;9.158;2023-06-22T12:56:49;5.70;;;4.00;;
20758;SDS011;10539;53.686;9.158;2023-06-22T12:59:16;7.93;;;4.15;;
20758;SDS011;10539;53.686;9.158;2023-06-22T13:01:43;4.55;;;3.78;;
20758;SDS011;10539;53.686;9.158;2023-06-22T13:04:10;6.95;;;4.05;;
20758;SDS011;10539;53.686;9.158;2023-06-22T13:06:40;6.93;;;3.85;;
20758;SDS011;10539;53.686;9.158;2023-06-22T13:09:06;5.13;;;3.60;;
20758;SDS011;10539;53.686;9.158;2023-06-22T13:11:31;6.25;;;4.95;;
20758;SDS011;10539;53.686;9.158;2023-06-22T13:13:57;7.00;;;4.00;;
20758;SDS011;10539;53.686;9.158;2023-06-22T13:16:23;6.88;;;4.13;;
20758;SDS011;10539;53.686;9.158;2023-06-22T13:18:49;8.75;;;4.57;;
20758;SDS011;10539;53.686;9.158;2023-06-22T13:21:14;4.97;;;3.85;;
20758;SDS011;10539;53.686;9.158;2023-06-22T13:23:40;5.82;;;3.78;;
20758;SDS011;10539;53.686;9.158;2023-06-22T13:26:07;5.57;;;4.03;;
20758;SDS011;10539;53.686;9.158;2023-06-22T13:28:32;6.20;;;3.83;;
20758;SDS011;10539;53.686;9.158;2023-06-22T13:30:58;6.13;;;4.63;;
20758;SDS011;10539;53.686;9.158;2023-06-22T13:33:24;4.85;;;3.72;;
20758;SDS011;10539;53.686;9.158;2023-06-22T13:35:50;6.88;;;5.05;;
20758;SDS011;10539;53.686;9.158;2023-06-22T13:38:15;5.57;;;4.70;;
20758;SDS011;10539;53.686;9.158;2023-06-22T13:40:42;10.57;;;4.63;;
20758;SDS011;10539;53.686;9.158;2023-06-22T13:43:08;4.55;;;3.63;;
20758;SDS011;10539;53.686;9.158;2023-06-22T13:45:34;6.32;;;4.53;;
20758;SDS011;10539;53.686;9.158;2023-06-22T13:47:59;4.93;;;4.28;;
20758;SDS011;10539;53.686;9.158;2023-06-22T13:50:25;5.60;;;4.57;;
20758;SDS011;10539;53.686;9.158;2023-06-22T13:52:51;5.95;;;4.88;;
20758;SDS011;10539;53.686;9.158;2023-06-22T13:55:17;6.03;;;4.25;;
20758;SDS011;10539;53.686;9.158;2023-06-22T13:57:44;5.05;;;4.40;;
20758;SDS011;10539;53.686;9.158;2023-06-22T14:00:10;6.00;;;4.38;;
20758;SDS011;10539;53.686;9.158;2023-06-22T14:02:40;6.75;;;4.82;;
20758;SDS011;10539;53.686;9.158;2023-06-22T14:05:06;7.55;;;4.80;;
20758;SDS011;10539;53.686;9.158;2023-06-22T14:07:32;7.05;;;4.35;;
20758;SDS011;10539;53.686;9.158;2023-06-22T14:09:59;6.20;;;4.35;;
20758;SDS011;10539;53.686;9.158;2023-06-22T14:12:25;5.68;;;4.38;;
20758;SDS011;10539;53.686;9.158;2023-06-22T14:14:51;6.35;;;4.60;;
20758;SDS011;10539;53.686;9.158;2023-06-22T14:17:17;4.40;;;4.00;;
20758;SDS011;10539;53.686;9.158;2023-06-22T14:19:49;6.60;;;4.57;;
20758;SDS011;10539;53.686;9.158;2023-06-22T14:22:15;9.63;;;4.85;;
20758;SDS011;10539;53.686;9.158;2023-06-22T14:24:41;6.38;;;4.00;;
20758;SDS011;10539;53.686;9.158;2023-06-22T14:27:06;5.65;;;4.20;;
20758;SDS011;10539;53.686;9.158;2023-06-22T14:29:34;6.95;;;4.65;;
20758;SDS011;10539;53.686;9.158;2023-06-22T14:32:00;6.63;;;4.78;;
20758;SDS011;10539;53.686;9.158;2023-06-22T14:34:26;8.07;;;5.18;;
20758;SDS011;10539;53.686;9.158;2023-06-22T14:36:51;6.00;;;4.22;;
20758;SDS011;10539;53.686;9.158;2023-06-22T14:39:17;11.25;;;4.53;;
20758;SDS011;10539;53.686;9.158;2023-06-22T14:41:43;9.32;;;4.75;;
20758;SDS011;10539;53.686;9.158;2023-06-22T14:44:08;4.78;;;4.35;;